sensor_id;sensor_type;location;lat;lon;timestamp;P1;durP1;ratioP1;P2;durP2;ratioP2
50379;SDS011;37474;59.468;18.040;2023-03-14T00:01:21;7.90;;;1.70;;
50379;SDS011;37474;59.468;18.040;2023-03-14T00:03:51;5.82;;;1.67;;
50379;SDS011;37474;59.468;18.040;2023-03-14T00:06:21;6.13;;;1.83;;
50379;SDS011;37474;59.468;18.040;2023-03-14T00:08:51;2.93;;;1.50;;
50379;SDS011;37474;59.468;18.040;2023-03-14T00:11:22;10.50;;;2.03;;
50379;SDS011;37474;59.468;18.040;2023-03-14T00:13:52;6.33;;;1.40;;
50379;SDS011;37474;59.468;18.040;2023-03-14T00:16:25;6.33;;;1.33;;
50379;SDS011;37474;59.468;18.040;2023-03-14T00:18:58;6.43;;;1.30;;
50379;SDS011;37474;59.468;18.040;2023-03-14T00:21:26;4.87;;;1.33;;
50379;SDS011;37474;59.468;18.040;2023-03-14T00:23:55;7.87;;;1.27;;
50379;SDS011;37474;59.468;18.040;2023-03-14T00:26:27;5.17;;;1.13;;
50379;SDS011;37474;59.468;18.040;2023-03-14T00:28:57;3.67;;;1.30;;
50379;SDS011;37474;59.468;18.040;2023-03-14T00:31:25;7.85;;;1.42;;
50379;SDS011;37474;59.468;18.040;2023-03-14T00:33:55;4.47;;;1.48;;
50379;SDS011;37474;59.468;18.040;2023-03-14T00:36:24;3.53;;;1.60;;
50379;SDS011;37474;59.468;18.040;2023-03-14T00:38:53;7.00;;;1.67;;
50379;SDS011;37474;59.468;18.040;2023-03-14T00:41:25;5.73;;;1.37;;
50379;SDS011;37474;59.468;18.040;2023-03-14T00:43:55;5.37;;;1.20;;
50379;SDS011;37474;59.468;18.040;2023-03-14T00:46:24;5.33;;;1.20;;
50379;SDS011;37474;59.468;18.040;2023-03-14T00:48:52;4.07;;;1.17;;
50379;SDS011;37474;59.468;18.040;2023-03-14T00:51:22;9.07;;;1.50;;
50379;SDS011;37474;59.468;18.040;2023-03-14T00:53:52;5.50;;;1.50;;
50379;SDS011;37474;59.468;18.040;2023-03-14T00:56:21;9.87;;;1.93;;
50379;SDS011;37474;59.468;18.040;2023-03-14T00:58:51;9.53;;;1.47;;
50379;SDS011;37474;59.468;18.040;2023-03-14T01:01:23;6.50;;;1.53;;
50379;SDS011;37474;59.468;18.040;2023-03-14T01:03:54;5.23;;;1.50;;
50379;SDS011;37474;59.468;18.040;2023-03-14T01:06:23;7.13;;;1.50;;
50379;SDS011;37474;59.468;18.040;2023-03-14T01:11:24;5.53;;;1.27;;
50379;SDS011;37474;59.468;18.040;2023-03-14T01:13:53;7.17;;;1.40;;
50379;SDS011;37474;59.468;18.040;2023-03-14T01:16:24;9.25;;;1.35;;
50379;SDS011;37474;59.468;18.040;2023-03-14T01:18:56;6.47;;;1.30;;
50379;SDS011;37474;59.468;18.040;2023-03-14T01:21:24;4.93;;;1.43;;
50379;SDS011;37474;59.468;18.040;2023-03-14T01:23:58;6.60;;;1.30;;
50379;SDS011;37474;59.468;18.040;2023-03-14T01:26:29;2.55;;;1.10;;
50379;SDS011;37474;59.468;18.040;2023-03-14T01:29:00;5.77;;;1.30;;
50379;SDS011;37474;59.468;18.040;2023-03-14T01:31:28;8.90;;;1.33;;
50379;SDS011;37474;59.468;18.040;2023-03-14T01:33:56;5.03;;;1.23;;
50379;SDS011;37474;59.468;18.040;2023-03-14T01:36:25;8.23;;;1.38;;
50379;SDS011;37474;59.468;18.040;2023-03-14T01:38:58;7.70;;;1.30;;
50379;SDS011;37474;59.468;18.040;2023-03-14T01:41:26;2.90;;;1.33;;
50379;SDS011;37474;59.468;18.040;2023-03-14T01:43:57;6.68;;;1.35;;
50379;SDS011;37474;59.468;18.040;2023-03-14T01:46:26;6.57;;;1.40;;
50379;SDS011;37474;59.468;18.040;2023-03-14T01:49:06;5.60;;;1.17;;
50379;SDS011;37474;59.468;18.040;2023-03-14T01:51:41;2.87;;;1.00;;
50379;SDS011;37474;59.468;18.040;2023-03-14T01:54:16;7.03;;;1.27;;
50379;SDS011;37474;59.468;18.040;2023-03-14T01:56:50;6.17;;;1.03;;
50379;SDS011;37474;59.468;18.040;2023-03-14T01:59:23;5.97;;;0.97;;
50379;SDS011;37474;59.468;18.040;2023-03-14T02:01:55;5.77;;;0.97;;
50379;SDS011;37474;59.468;18.040;2023-03-14T02:06:54;2.40;;;0.80;;
50379;SDS011;37474;59.468;18.040;2023-03-14T02:09:28;1.67;;;0.80;;
50379;SDS011;37474;59.468;18.040;2023-03-14T02:11:59;6.20;;;1.20;;
50379;SDS011;37474;59.468;18.040;2023-03-14T02:14:30;2.53;;;0.80;;
50379;SDS011;37474;59.468;18.040;2023-03-14T02:17:05;2.73;;;0.90;;
50379;SDS011;37474;59.468;18.040;2023-03-14T02:19:36;2.97;;;1.00;;
50379;SDS011;37474;59.468;18.040;2023-03-14T02:22:19;2.57;;;0.73;;
50379;SDS011;37474;59.468;18.040;2023-03-14T02:24:50;6.80;;;1.03;;
50379;SDS011;37474;59.468;18.040;2023-03-14T02:27:27;2.17;;;0.63;;
50379;SDS011;37474;59.468;18.040;2023-03-14T02:29:57;3.87;;;0.70;;
50379;SDS011;37474;59.468;18.040;2023-03-14T02:32:30;3.43;;;0.90;;
50379;SDS011;37474;59.468;18.040;2023-03-14T02:35:00;2.47;;;0.80;;
50379;SDS011;37474;59.468;18.040;2023-03-14T02:37:35;1.43;;;0.67;;
50379;SDS011;37474;59.468;18.040;2023-03-14T02:40:08;3.40;;;0.70;;
50379;SDS011;37474;59.468;18.040;2023-03-14T02:42:40;4.07;;;1.20;;
50379;SDS011;37474;59.468;18.040;2023-03-14T02:48:02;1.37;;;0.70;;
50379;SDS011;37474;59.468;18.040;2023-03-14T02:50:36;2.97;;;0.67;;
50379;SDS011;37474;59.468;18.040;2023-03-14T02:53:05;2.30;;;0.50;;
50379;SDS011;37474;59.468;18.040;2023-03-14T02:55:33;2.77;;;0.70;;
50379;SDS011;37474;59.468;18.040;2023-03-14T02:58:04;2.60;;;0.50;;
50379;SDS011;37474;59.468;18.040;2023-03-14T03:00:33;2.33;;;0.80;;
50379;SDS011;37474;59.468;18.040;2023-03-14T03:03:01;2.87;;;0.70;;
50379;SDS011;37474;59.468;18.040;2023-03-14T03:05:34;2.58;;;0.55;;
50379;SDS011;37474;59.468;18.040;2023-03-14T03:08:03;3.87;;;0.63;;
50379;SDS011;37474;59.468;18.040;2023-03-14T03:10:32;3.07;;;0.60;;
50379;SDS011;37474;59.468;18.040;2023-03-14T03:13:02;2.73;;;0.50;;
50379;SDS011;37474;59.468;18.040;2023-03-14T03:15:33;1.93;;;0.60;;
50379;SDS011;37474;59.468;18.040;2023-03-14T03:18:01;2.43;;;0.63;;
50379;SDS011;37474;59.468;18.040;2023-03-14T03:20:30;4.47;;;0.70;;
50379;SDS011;37474;59.468;18.040;2023-03-14T03:23:00;3.47;;;0.90;;
50379;SDS011;37474;59.468;18.040;2023-03-14T03:25:29;3.60;;;0.60;;
50379;SDS011;37474;59.468;18.040;2023-03-14T03:28:00;4.63;;;0.70;;
50379;SDS011;37474;59.468;18.040;2023-03-14T03:30:31;3.60;;;0.87;;
50379;SDS011;37474;59.468;18.040;2023-03-14T03:33:01;2.33;;;0.60;;
50379;SDS011;37474;59.468;18.040;2023-03-14T03:35:31;3.90;;;0.75;;
50379;SDS011;37474;59.468;18.040;2023-03-14T03:37:59;1.90;;;0.73;;
50379;SDS011;37474;59.468;18.040;2023-03-14T03:40:29;2.90;;;0.40;;
50379;SDS011;37474;59.468;18.040;2023-03-14T03:42:59;3.70;;;0.60;;
50379;SDS011;37474;59.468;18.040;2023-03-14T03:45:27;1.00;;;0.30;;
50379;SDS011;37474;59.468;18.040;2023-03-14T03:47:58;1.63;;;0.40;;
50379;SDS011;37474;59.468;18.040;2023-03-14T03:50:27;3.43;;;0.70;;
50379;SDS011;37474;59.468;18.040;2023-03-14T03:52:55;2.27;;;0.60;;
50379;SDS011;37474;59.468;18.040;2023-03-14T03:55:25;1.73;;;0.60;;
50379;SDS011;37474;59.468;18.040;2023-03-14T03:57:56;1.87;;;0.43;;
50379;SDS011;37474;59.468;18.040;2023-03-14T04:00:23;2.97;;;0.43;;
50379;SDS011;37474;59.468;18.040;2023-03-14T04:02:56;2.73;;;0.60;;
50379;SDS011;37474;59.468;18.040;2023-03-14T04:05:28;1.50;;;0.50;;
50379;SDS011;37474;59.468;18.040;2023-03-14T04:07:58;3.93;;;0.70;;
50379;SDS011;37474;59.468;18.040;2023-03-14T04:10:26;4.78;;;0.82;;
50379;SDS011;37474;59.468;18.040;2023-03-14T04:12:54;2.47;;;0.83;;
50379;SDS011;37474;59.468;18.040;2023-03-14T04:15:22;1.23;;;0.50;;
50379;SDS011;37474;59.468;18.040;2023-03-14T04:17:50;9.23;;;1.00;;
50379;SDS011;37474;59.468;18.040;2023-03-14T04:20:21;2.33;;;0.63;;
50379;SDS011;37474;59.468;18.040;2023-03-14T04:22:51;2.47;;;0.70;;
50379;SDS011;37474;59.468;18.040;2023-03-14T04:25:19;7.85;;;1.10;;
50379;SDS011;37474;59.468;18.040;2023-03-14T04:27:49;5.18;;;0.90;;
50379;SDS011;37474;59.468;18.040;2023-03-14T04:30:20;5.10;;;0.93;;
50379;SDS011;37474;59.468;18.040;2023-03-14T04:32:48;5.72;;;0.60;;
50379;SDS011;37474;59.468;18.040;2023-03-14T04:35:18;6.60;;;0.80;;
50379;SDS011;37474;59.468;18.040;2023-03-14T04:37:49;3.87;;;1.00;;
50379;SDS011;37474;59.468;18.040;2023-03-14T04:40:18;2.63;;;0.50;;
50379;SDS011;37474;59.468;18.040;2023-03-14T04:42:48;3.58;;;0.80;;
50379;SDS011;37474;59.468;18.040;2023-03-14T04:45:18;4.90;;;0.90;;
50379;SDS011;37474;59.468;18.040;2023-03-14T04:47:45;4.80;;;1.05;;
50379;SDS011;37474;59.468;18.040;2023-03-14T04:50:15;5.32;;;0.70;;
50379;SDS011;37474;59.468;18.040;2023-03-14T04:52:45;4.30;;;1.03;;
50379;SDS011;37474;59.468;18.040;2023-03-14T04:55:14;3.40;;;0.95;;
50379;SDS011;37474;59.468;18.040;2023-03-14T04:57:44;4.90;;;0.90;;
50379;SDS011;37474;59.468;18.040;2023-03-14T05:00:14;5.07;;;1.10;;
50379;SDS011;37474;59.468;18.040;2023-03-14T05:03:01;5.25;;;1.02;;
50379;SDS011;37474;59.468;18.040;2023-03-14T05:05:31;3.70;;;0.80;;
50379;SDS011;37474;59.468;18.040;2023-03-14T05:07:59;5.85;;;1.20;;
50379;SDS011;37474;59.468;18.040;2023-03-14T05:10:28;6.47;;;0.93;;
50379;SDS011;37474;59.468;18.040;2023-03-14T05:12:56;5.97;;;1.10;;
50379;SDS011;37474;59.468;18.040;2023-03-14T05:15:24;8.47;;;1.17;;
50379;SDS011;37474;59.468;18.040;2023-03-14T05:17:52;4.07;;;0.80;;
50379;SDS011;37474;59.468;18.040;2023-03-14T05:20:24;5.82;;;1.13;;
50379;SDS011;37474;59.468;18.040;2023-03-14T05:22:54;5.43;;;1.02;;
50379;SDS011;37474;59.468;18.040;2023-03-14T05:25:22;9.43;;;1.05;;
50379;SDS011;37474;59.468;18.040;2023-03-14T05:27:54;5.18;;;1.25;;
50379;SDS011;37474;59.468;18.040;2023-03-14T05:30:22;6.78;;;1.00;;
50379;SDS011;37474;59.468;18.040;2023-03-14T05:32:50;7.57;;;1.47;;
50379;SDS011;37474;59.468;18.040;2023-03-14T05:35:22;5.18;;;1.10;;
50379;SDS011;37474;59.468;18.040;2023-03-14T05:37:49;4.50;;;1.23;;
50379;SDS011;37474;59.468;18.040;2023-03-14T05:40:17;5.80;;;0.90;;
50379;SDS011;37474;59.468;18.040;2023-03-14T05:42:47;6.03;;;1.03;;
50379;SDS011;37474;59.468;18.040;2023-03-14T05:45:16;6.63;;;1.23;;
50379;SDS011;37474;59.468;18.040;2023-03-14T05:47:44;6.90;;;1.10;;
50379;SDS011;37474;59.468;18.040;2023-03-14T05:50:16;7.75;;;1.00;;
50379;SDS011;37474;59.468;18.040;2023-03-14T05:52:44;9.93;;;1.30;;
50379;SDS011;37474;59.468;18.040;2023-03-14T05:55:11;4.40;;;0.93;;
50379;SDS011;37474;59.468;18.040;2023-03-14T05:57:43;2.65;;;0.82;;
50379;SDS011;37474;59.468;18.040;2023-03-14T06:00:11;7.03;;;1.40;;
50379;SDS011;37474;59.468;18.040;2023-03-14T06:02:41;7.97;;;1.03;;
50379;SDS011;37474;59.468;18.040;2023-03-14T06:05:13;5.57;;;0.80;;
50379;SDS011;37474;59.468;18.040;2023-03-14T06:07:40;5.13;;;0.90;;
50379;SDS011;37474;59.468;18.040;2023-03-14T06:10:09;3.83;;;0.70;;
50379;SDS011;37474;59.468;18.040;2023-03-14T06:15:07;5.87;;;0.90;;
50379;SDS011;37474;59.468;18.040;2023-03-14T06:17:35;8.37;;;1.40;;
50379;SDS011;37474;59.468;18.040;2023-03-14T06:20:09;3.13;;;0.73;;
50379;SDS011;37474;59.468;18.040;2023-03-14T06:22:37;4.63;;;0.70;;
50379;SDS011;37474;59.468;18.040;2023-03-14T06:25:07;5.77;;;0.73;;
50379;SDS011;37474;59.468;18.040;2023-03-14T06:27:37;8.57;;;1.10;;
50379;SDS011;37474;59.468;18.040;2023-03-14T06:30:05;5.30;;;0.77;;
50379;SDS011;37474;59.468;18.040;2023-03-14T06:32:36;3.43;;;0.70;;
50379;SDS011;37474;59.468;18.040;2023-03-14T06:35:06;4.70;;;0.93;;
50379;SDS011;37474;59.468;18.040;2023-03-14T06:37:36;7.33;;;1.17;;
50379;SDS011;37474;59.468;18.040;2023-03-14T06:40:06;4.93;;;1.80;;
50379;SDS011;37474;59.468;18.040;2023-03-14T06:42:37;2.80;;;0.73;;
50379;SDS011;37474;59.468;18.040;2023-03-14T06:45:22;5.47;;;0.90;;
50379;SDS011;37474;59.468;18.040;2023-03-14T06:47:50;5.30;;;1.20;;
50379;SDS011;37474;59.468;18.040;2023-03-14T06:50:19;1.73;;;0.50;;
50379;SDS011;37474;59.468;18.040;2023-03-14T06:55:18;1.63;;;0.40;;
50379;SDS011;37474;59.468;18.040;2023-03-14T06:57:48;2.90;;;0.75;;
50379;SDS011;37474;59.468;18.040;2023-03-14T07:00:16;3.93;;;0.53;;
50379;SDS011;37474;59.468;18.040;2023-03-14T07:02:48;3.42;;;0.45;;
50379;SDS011;37474;59.468;18.040;2023-03-14T07:05:16;3.88;;;0.60;;
50379;SDS011;37474;59.468;18.040;2023-03-14T07:07:45;2.93;;;0.40;;
50379;SDS011;37474;59.468;18.040;2023-03-14T07:10:15;3.50;;;0.40;;
50379;SDS011;37474;59.468;18.040;2023-03-14T07:12:50;2.63;;;0.67;;
50379;SDS011;37474;59.468;18.040;2023-03-14T07:15:19;4.80;;;0.60;;
50379;SDS011;37474;59.468;18.040;2023-03-14T07:17:47;2.50;;;0.50;;
50379;SDS011;37474;59.468;18.040;2023-03-14T07:20:15;1.70;;;0.40;;
50379;SDS011;37474;59.468;18.040;2023-03-14T07:22:45;2.73;;;0.70;;
50379;SDS011;37474;59.468;18.040;2023-03-14T07:25:14;4.87;;;0.60;;
50379;SDS011;37474;59.468;18.040;2023-03-14T07:27:43;2.20;;;0.40;;
50379;SDS011;37474;59.468;18.040;2023-03-14T07:30:11;2.77;;;0.47;;
50379;SDS011;37474;59.468;18.040;2023-03-14T07:32:40;1.67;;;0.50;;
50379;SDS011;37474;59.468;18.040;2023-03-14T07:35:25;1.00;;;0.40;;
50379;SDS011;37474;59.468;18.040;2023-03-14T07:37:58;2.03;;;0.40;;
50379;SDS011;37474;59.468;18.040;2023-03-14T07:40:28;1.17;;;0.20;;
50379;SDS011;37474;59.468;18.040;2023-03-14T07:43:13;2.07;;;0.20;;
50379;SDS011;37474;59.468;18.040;2023-03-14T07:45:44;1.20;;;0.30;;
50379;SDS011;37474;59.468;18.040;2023-03-14T07:48:16;1.30;;;0.10;;
50379;SDS011;37474;59.468;18.040;2023-03-14T07:50:44;2.63;;;0.30;;
50379;SDS011;37474;59.468;18.040;2023-03-14T07:53:17;1.13;;;0.20;;
50379;SDS011;37474;59.468;18.040;2023-03-14T07:55:45;0.93;;;0.30;;
50379;SDS011;37474;59.468;18.040;2023-03-14T07:58:14;0.28;;;0.28;;
50379;SDS011;37474;59.468;18.040;2023-03-14T08:00:42;0.80;;;0.13;;
50379;SDS011;37474;59.468;18.040;2023-03-14T08:03:13;0.30;;;0.20;;
50379;SDS011;37474;59.468;18.040;2023-03-14T08:05:43;0.33;;;0.17;;
50379;SDS011;37474;59.468;18.040;2023-03-14T08:08:18;0.20;;;0.10;;
50379;SDS011;37474;59.468;18.040;2023-03-14T08:10:50;0.93;;;0.10;;
50379;SDS011;37474;59.468;18.040;2023-03-14T08:13:18;0.40;;;0.20;;
50379;SDS011;37474;59.468;18.040;2023-03-14T08:15:47;0.30;;;0.10;;
50379;SDS011;37474;59.468;18.040;2023-03-14T08:18:19;2.07;;;0.10;;
50379;SDS011;37474;59.468;18.040;2023-03-14T08:20:47;0.53;;;0.20;;
50379;SDS011;37474;59.468;18.040;2023-03-14T08:23:16;1.07;;;0.20;;
50379;SDS011;37474;59.468;18.040;2023-03-14T08:25:47;0.10;;;0.10;;
50379;SDS011;37474;59.468;18.040;2023-03-14T08:28:17;2.83;;;0.40;;
50379;SDS011;37474;59.468;18.040;2023-03-14T08:30:45;0.30;;;0.20;;
50379;SDS011;37474;59.468;18.040;2023-03-14T08:33:13;0.10;;;0.10;;
50379;SDS011;37474;59.468;18.040;2023-03-14T08:35:43;0.55;;;0.20;;
50379;SDS011;37474;59.468;18.040;2023-03-14T08:38:11;0.73;;;0.20;;
50379;SDS011;37474;59.468;18.040;2023-03-14T08:40:42;0.73;;;0.20;;
50379;SDS011;37474;59.468;18.040;2023-03-14T08:43:10;0.33;;;0.10;;
50379;SDS011;37474;59.468;18.040;2023-03-14T08:45:38;0.10;;;0.10;;
50379;SDS011;37474;59.468;18.040;2023-03-14T08:48:05;0.10;;;0.10;;
50379;SDS011;37474;59.468;18.040;2023-03-14T08:50:33;0.10;;;0.10;;
50379;SDS011;37474;59.468;18.040;2023-03-14T08:53:01;0.10;;;0.10;;
50379;SDS011;37474;59.468;18.040;2023-03-14T08:55:29;0.20;;;0.20;;
50379;SDS011;37474;59.468;18.040;2023-03-14T08:57:58;2.33;;;0.20;;
50379;SDS011;37474;59.468;18.040;2023-03-14T09:00:26;0.50;;;0.43;;
50379;SDS011;37474;59.468;18.040;2023-03-14T09:02:54;0.50;;;0.20;;
50379;SDS011;37474;59.468;18.040;2023-03-14T09:05:22;0.13;;;0.13;;
50379;SDS011;37474;59.468;18.040;2023-03-14T09:07:49;0.20;;;0.10;;
50379;SDS011;37474;59.468;18.040;2023-03-14T09:10:17;0.80;;;0.20;;
50379;SDS011;37474;59.468;18.040;2023-03-14T09:12:45;0.33;;;0.20;;
50379;SDS011;37474;59.468;18.040;2023-03-14T09:15:14;0.60;;;0.30;;
50379;SDS011;37474;59.468;18.040;2023-03-14T09:17:42;0.20;;;0.20;;
50379;SDS011;37474;59.468;18.040;2023-03-14T09:20:28;0.10;;;0.10;;
50379;SDS011;37474;59.468;18.040;2023-03-14T09:22:56;0.20;;;0.20;;
50379;SDS011;37474;59.468;18.040;2023-03-14T09:25:23;0.20;;;0.20;;
50379;SDS011;37474;59.468;18.040;2023-03-14T09:27:51;0.10;;;0.10;;
50379;SDS011;37474;59.468;18.040;2023-03-14T09:30:20;0.50;;;0.20;;
50379;SDS011;37474;59.468;18.040;2023-03-14T09:32:48;0.50;;;0.20;;
50379;SDS011;37474;59.468;18.040;2023-03-14T09:35:16;0.63;;;0.20;;
50379;SDS011;37474;59.468;18.040;2023-03-14T09:37:46;0.22;;;0.20;;
50379;SDS011;37474;59.468;18.040;2023-03-14T09:40:15;0.57;;;0.23;;
50379;SDS011;37474;59.468;18.040;2023-03-14T09:42:44;0.20;;;0.20;;
50379;SDS011;37474;59.468;18.040;2023-03-14T09:45:13;1.00;;;0.30;;
50379;SDS011;37474;59.468;18.040;2023-03-14T09:47:50;0.37;;;0.20;;
50379;SDS011;37474;59.468;18.040;2023-03-14T09:50:25;0.30;;;0.30;;
50379;SDS011;37474;59.468;18.040;2023-03-14T09:52:58;0.20;;;0.20;;
50379;SDS011;37474;59.468;18.040;2023-03-14T09:55:30;1.33;;;0.23;;
50379;SDS011;37474;59.468;18.040;2023-03-14T09:58:02;0.80;;;0.20;;
50379;SDS011;37474;59.468;18.040;2023-03-14T10:00:36;0.30;;;0.20;;
50379;SDS011;37474;59.468;18.040;2023-03-14T10:03:13;1.23;;;0.20;;
50379;SDS011;37474;59.468;18.040;2023-03-14T10:05:51;0.53;;;0.20;;
50379;SDS011;37474;59.468;18.040;2023-03-14T10:08:20;0.13;;;0.13;;
50379;SDS011;37474;59.468;18.040;2023-03-14T10:10:47;0.40;;;0.20;;
50379;SDS011;37474;59.468;18.040;2023-03-14T10:13:18;0.40;;;0.20;;
50379;SDS011;37474;59.468;18.040;2023-03-14T10:18:21;0.20;;;0.20;;
50379;SDS011;37474;59.468;18.040;2023-03-14T10:21:00;0.20;;;0.20;;
50379;SDS011;37474;59.468;18.040;2023-03-14T10:23:31;0.40;;;0.30;;
50379;SDS011;37474;59.468;18.040;2023-03-14T10:26:03;0.13;;;0.13;;
50379;SDS011;37474;59.468;18.040;2023-03-14T10:28:34;0.50;;;0.20;;
50379;SDS011;37474;59.468;18.040;2023-03-14T10:31:06;0.40;;;0.30;;
50379;SDS011;37474;59.468;18.040;2023-03-14T10:33:37;0.28;;;0.20;;
50379;SDS011;37474;59.468;18.040;2023-03-14T10:36:15;0.17;;;0.17;;
50379;SDS011;37474;59.468;18.040;2023-03-14T10:38:48;0.30;;;0.30;;
50379;SDS011;37474;59.468;18.040;2023-03-14T10:41:19;0.27;;;0.27;;
50379;SDS011;37474;59.468;18.040;2023-03-14T10:43:54;0.30;;;0.30;;
50379;SDS011;37474;59.468;18.040;2023-03-14T10:46:28;0.87;;;0.20;;
50379;SDS011;37474;59.468;18.040;2023-03-14T10:49:01;1.03;;;0.30;;
50379;SDS011;37474;59.468;18.040;2023-03-14T10:51:35;0.20;;;0.20;;
50379;SDS011;37474;59.468;18.040;2023-03-14T10:54:12;0.67;;;0.30;;
50379;SDS011;37474;59.468;18.040;2023-03-14T10:56:43;0.30;;;0.20;;
50379;SDS011;37474;59.468;18.040;2023-03-14T10:59:14;0.30;;;0.20;;
50379;SDS011;37474;59.468;18.040;2023-03-14T11:01:44;0.30;;;0.30;;
50379;SDS011;37474;59.468;18.040;2023-03-14T11:07:22;0.73;;;0.30;;
50379;SDS011;37474;59.468;18.040;2023-03-14T11:09:58;1.03;;;0.30;;
50379;SDS011;37474;59.468;18.040;2023-03-14T11:12:38;0.20;;;0.20;;
50379;SDS011;37474;59.468;18.040;2023-03-14T11:15:15;0.20;;;0.20;;
50379;SDS011;37474;59.468;18.040;2023-03-14T11:17:50;0.60;;;0.30;;
50379;SDS011;37474;59.468;18.040;2023-03-14T11:20:37;0.57;;;0.20;;
50379;SDS011;37474;59.468;18.040;2023-03-14T11:23:12;0.40;;;0.33;;
50379;SDS011;37474;59.468;18.040;2023-03-14T11:25:47;0.50;;;0.23;;
50379;SDS011;37474;59.468;18.040;2023-03-14T11:28:29;0.30;;;0.20;;
50379;SDS011;37474;59.468;18.040;2023-03-14T11:31:09;0.30;;;0.30;;
50379;SDS011;37474;59.468;18.040;2023-03-14T11:33:50;0.50;;;0.27;;
50379;SDS011;37474;59.468;18.040;2023-03-14T11:36:27;0.22;;;0.20;;
50379;SDS011;37474;59.468;18.040;2023-03-14T11:39:03;0.80;;;0.30;;
50379;SDS011;37474;59.468;18.040;2023-03-14T11:41:41;0.60;;;0.30;;
50379;SDS011;37474;59.468;18.040;2023-03-14T11:44:17;0.30;;;0.30;;
50379;SDS011;37474;59.468;18.040;2023-03-14T11:46:50;0.60;;;0.20;;
50379;SDS011;37474;59.468;18.040;2023-03-14T11:49:24;0.70;;;0.20;;
50379;SDS011;37474;59.468;18.040;2023-03-14T11:52:00;0.57;;;0.20;;
50379;SDS011;37474;59.468;18.040;2023-03-14T11:54:34;0.43;;;0.20;;
50379;SDS011;37474;59.468;18.040;2023-03-14T11:57:14;1.07;;;0.40;;
50379;SDS011;37474;59.468;18.040;2023-03-14T11:59:46;0.22;;;0.22;;
50379;SDS011;37474;59.468;18.040;2023-03-14T12:02:21;0.87;;;0.30;;
50379;SDS011;37474;59.468;18.040;2023-03-14T12:04:54;0.47;;;0.40;;
50379;SDS011;37474;59.468;18.040;2023-03-14T12:07:57;0.70;;;0.30;;
50379;SDS011;37474;59.468;18.040;2023-03-14T12:10:49;0.60;;;0.37;;
50379;SDS011;37474;59.468;18.040;2023-03-14T12:13:20;0.40;;;0.30;;
50379;SDS011;37474;59.468;18.040;2023-03-14T12:15:49;0.20;;;0.20;;
50379;SDS011;37474;59.468;18.040;2023-03-14T12:18:26;0.77;;;0.30;;
50379;SDS011;37474;59.468;18.040;2023-03-14T12:20:57;1.23;;;0.30;;
50379;SDS011;37474;59.468;18.040;2023-03-14T12:23:33;0.23;;;0.20;;
50379;SDS011;37474;59.468;18.040;2023-03-14T12:26:08;0.50;;;0.30;;
50379;SDS011;37474;59.468;18.040;2023-03-14T12:28:44;0.30;;;0.30;;
50379;SDS011;37474;59.468;18.040;2023-03-14T12:31:36;0.30;;;0.20;;
50379;SDS011;37474;59.468;18.040;2023-03-14T12:36:59;0.57;;;0.30;;
50379;SDS011;37474;59.468;18.040;2023-03-14T12:39:37;0.33;;;0.30;;
50379;SDS011;37474;59.468;18.040;2023-03-14T12:42:12;0.53;;;0.20;;
50379;SDS011;37474;59.468;18.040;2023-03-14T12:44:47;0.20;;;0.20;;
50379;SDS011;37474;59.468;18.040;2023-03-14T12:50:26;1.40;;;0.23;;
50379;SDS011;37474;59.468;18.040;2023-03-14T12:53:14;0.43;;;0.20;;
50379;SDS011;37474;59.468;18.040;2023-03-14T12:56:26;2.00;;;0.20;;
50379;SDS011;37474;59.468;18.040;2023-03-14T12:59:14;0.93;;;0.30;;
50379;SDS011;37474;59.468;18.040;2023-03-14T13:02:00;2.83;;;0.40;;
50379;SDS011;37474;59.468;18.040;2023-03-14T13:04:32;2.00;;;0.40;;
50379;SDS011;37474;59.468;18.040;2023-03-14T13:07:10;0.70;;;0.30;;
50379;SDS011;37474;59.468;18.040;2023-03-14T13:12:36;0.30;;;0.20;;
50379;SDS011;37474;59.468;18.040;2023-03-14T13:15:14;0.40;;;0.30;;
50379;SDS011;37474;59.468;18.040;2023-03-14T13:17:48;0.40;;;0.30;;
50379;SDS011;37474;59.468;18.040;2023-03-14T13:20:19;0.60;;;0.40;;
50379;SDS011;37474;59.468;18.040;2023-03-14T13:22:54;0.20;;;0.20;;
50379;SDS011;37474;59.468;18.040;2023-03-14T13:25:22;0.38;;;0.20;;
50379;SDS011;37474;59.468;18.040;2023-03-14T13:27:53;0.30;;;0.20;;
50379;SDS011;37474;59.468;18.040;2023-03-14T13:30:23;0.53;;;0.30;;
50379;SDS011;37474;59.468;18.040;2023-03-14T13:32:53;0.40;;;0.40;;
50379;SDS011;37474;59.468;18.040;2023-03-14T13:35:23;0.40;;;0.30;;
50379;SDS011;37474;59.468;18.040;2023-03-14T13:37:55;1.63;;;0.30;;
50379;SDS011;37474;59.468;18.040;2023-03-14T13:40:39;0.30;;;0.20;;
50379;SDS011;37474;59.468;18.040;2023-03-14T13:43:15;0.40;;;0.30;;
50379;SDS011;37474;59.468;18.040;2023-03-14T13:45:49;0.43;;;0.40;;
50379;SDS011;37474;59.468;18.040;2023-03-14T13:48:19;1.17;;;0.53;;
50379;SDS011;37474;59.468;18.040;2023-03-14T13:50:51;2.03;;;0.50;;
50379;SDS011;37474;59.468;18.040;2023-03-14T13:53:22;3.83;;;0.80;;
50379;SDS011;37474;59.468;18.040;2023-03-14T13:55:50;3.00;;;0.87;;
50379;SDS011;37474;59.468;18.040;2023-03-14T13:58:27;2.20;;;1.03;;
50379;SDS011;37474;59.468;18.040;2023-03-14T14:01:00;2.60;;;1.23;;
50379;SDS011;37474;59.468;18.040;2023-03-14T14:03:32;1.87;;;0.90;;
50379;SDS011;37474;59.468;18.040;2023-03-14T14:06:04;0.87;;;0.50;;
50379;SDS011;37474;59.468;18.040;2023-03-14T14:08:39;4.87;;;0.57;;
50379;SDS011;37474;59.468;18.040;2023-03-14T14:11:08;1.10;;;0.60;;
50379;SDS011;37474;59.468;18.040;2023-03-14T14:13:44;2.17;;;0.70;;
50379;SDS011;37474;59.468;18.040;2023-03-14T14:16:13;3.27;;;0.67;;
50379;SDS011;37474;59.468;18.040;2023-03-14T14:18:44;1.80;;;0.60;;
50379;SDS011;37474;59.468;18.040;2023-03-14T14:21:12;2.33;;;0.63;;
50379;SDS011;37474;59.468;18.040;2023-03-14T14:23:41;5.87;;;0.90;;
50379;SDS011;37474;59.468;18.040;2023-03-14T14:26:13;1.53;;;0.60;;
50379;SDS011;37474;59.468;18.040;2023-03-14T14:28:44;2.27;;;0.63;;
50379;SDS011;37474;59.468;18.040;2023-03-14T14:31:21;2.10;;;0.50;;
50379;SDS011;37474;59.468;18.040;2023-03-14T14:33:55;4.37;;;0.67;;
50379;SDS011;37474;59.468;18.040;2023-03-14T14:36:26;4.93;;;0.70;;
50379;SDS011;37474;59.468;18.040;2023-03-14T14:39:00;1.53;;;0.60;;
50379;SDS011;37474;59.468;18.040;2023-03-14T14:41:31;2.03;;;0.70;;
50379;SDS011;37474;59.468;18.040;2023-03-14T14:46:32;1.25;;;1.00;;
50379;SDS011;37474;59.468;18.040;2023-03-14T14:49:04;0.90;;;0.70;;
50379;SDS011;37474;59.468;18.040;2023-03-14T14:51:38;3.73;;;1.10;;
50379;SDS011;37474;59.468;18.040;2023-03-14T14:54:10;1.43;;;1.00;;
50379;SDS011;37474;59.468;18.040;2023-03-14T14:56:45;1.10;;;1.00;;
50379;SDS011;37474;59.468;18.040;2023-03-14T14:59:24;1.83;;;1.03;;
50379;SDS011;37474;59.468;18.040;2023-03-14T15:01:57;2.03;;;1.00;;
50379;SDS011;37474;59.468;18.040;2023-03-14T15:04:29;1.07;;;0.70;;
50379;SDS011;37474;59.468;18.040;2023-03-14T15:06:58;1.17;;;0.85;;
50379;SDS011;37474;59.468;18.040;2023-03-14T15:09:26;1.70;;;0.70;;
50379;SDS011;37474;59.468;18.040;2023-03-14T15:11:56;0.60;;;0.60;;
50379;SDS011;37474;59.468;18.040;2023-03-14T15:14:25;0.73;;;0.60;;
50379;SDS011;37474;59.468;18.040;2023-03-14T15:16:53;2.73;;;0.70;;
50379;SDS011;37474;59.468;18.040;2023-03-14T15:19:23;2.05;;;0.85;;
50379;SDS011;37474;59.468;18.040;2023-03-14T15:21:53;2.10;;;0.73;;
50379;SDS011;37474;59.468;18.040;2023-03-14T15:24:20;3.23;;;0.83;;
50379;SDS011;37474;59.468;18.040;2023-03-14T15:26:49;1.97;;;0.70;;
50379;SDS011;37474;59.468;18.040;2023-03-14T15:29:19;1.00;;;0.90;;